Data for 04/28/2005

Time Sea-Level Adjusted Pressure Absolute Pressure Temperature Relative Humidity Dew Point   
(mb) (inHg) (mb) (inHg) (C) (F) (%) (C) (F)
00:05 1018 30.06 847 25.01 -4.9 23.1 81 -7.7 18.2
00:10 1018 30.06 847 25.01 -4.9 23.2 81 -7.6 18.3
00:15 1018 30.06 847 25.01 -4.9 23.2 82 -7.5 18.5
00:20 1018 30.06 847 25.01 -5 23.1 81 -7.8 17.9
00:25 1018 30.06 847 25.01 -5 23 81 -7.8 18
00:30 1018 30.06 847 25.01 -5 23 80 -8 17.7
00:35 1018 30.06 847 25.01 -5 23 79 -8.1 17.5
00:40 1018 30.06 847 25.01 -5 22.9 79 -8.1 17.4
00:45 1018 30.06 847 25.01 -5.1 22.9 79 -8.1 17.4
00:50 1018 30.06 847 25.01 -5.1 22.9 80 -8 17.6
00:55 1018 30.06 847 25.01 -5.1 22.9 80 -8.1 17.5
01:00 1018 30.06 847 25.01 -5.1 22.9 78 -8.3 17
01:05 1018 30.06 847 25.01 -5.1 22.8 79 -8.2 17.2
01:10 1018 30.06 847 25.01 -5.1 22.7 78 -8.4 16.9
01:15 1018 30.06 847 25.01 -5.1 22.8 78 -8.4 16.9
01:20 1018 30.06 847 25.01 -5.1 22.8 78 -8.5 16.8
01:25 1018 30.06 847 25.01 -5.1 22.7 76 -8.7 16.4
01:30 1018 30.06 847 25.01 -5.2 22.7 77 -8.5 16.6
01:35 1018 30.06 847 25.01 -5.2 22.7 77 -8.7 16.4
01:40 1017 30.03 847 25.01 -5.3 22.5 77 -8.7 16.3
01:45 1017 30.03 847 25.01 -5.2 22.6 77 -8.7 16.4
01:50 1017 30.03 847 25.01 -5.2 22.6 76 -8.8 16.1
01:55 1017 30.03 847 25.01 -5.3 22.5 76 -8.8 16.2
02:00 1017 30.03 847 25.01 -5.3 22.5 76 -8.9 16
02:05 1017 30.03 847 25.01 -5.3 22.5 77 -8.8 16.2
02:10 1017 30.03 847 25.01 -5.3 22.5 76 -8.9 16.1
02:15 1017 30.03 846 24.98 -5.3 22.5 77 -8.8 16.2
02:20 1017 30.03 846 24.98 -5.3 22.5 77 -8.7 16.3
02:25 1017 30.03 846 24.98 -5.3 22.5 77 -8.6 16.5
02:30 1017 30.03 846 24.98 -5.3 22.4 77 -8.8 16.2
02:35 1017 30.03 846 24.98 -5.3 22.5 76 -8.8 16.1
02:40 1017 30.03 846 24.98 -5.3 22.4 76 -8.9 16
02:45 1017 30.03 846 24.98 -5.4 22.3 77 -8.8 16.2
02:50 1017 30.03 846 24.98 -5.3 22.4 77 -8.8 16.2
02:55 1017 30.03 846 24.98 -5.3 22.4 76 -8.9 15.9
03:00 1017 30.03 846 24.98 -5.3 22.4 77 -8.8 16.2
03:05 1017 30.03 846 24.98 -5.3 22.4 76 -8.8 16.1
03:10 1017 30.03 846 24.98 -5.3 22.4 77 -8.7 16.3
03:15 1017 30.03 846 24.98 -5.4 22.3 76 -8.9 15.9
03:20 1017 30.03 846 24.98 -5.4 22.3 77 -8.8 16.2
03:25 1017 30.03 846 24.98 -5.3 22.4 77 -8.8 16.2
03:30 1017 30.03 846 24.98 -5.4 22.3 77 -8.8 16.2
03:35 1017 30.03 846 24.98 -5.4 22.4 76 -8.9 16
03:40 1017 30.03 846 24.98 -5.4 22.3 78 -8.7 16.4
03:45 1017 30.03 846 24.98 -5.4 22.3 78 -8.6 16.5
03:50 1017 30.03 846 24.98 -5.4 22.3 77 -8.8 16.2
03:55 1017 30.03 846 24.98 -5.4 22.2 78 -8.7 16.3
04:00 1017 30.03 846 24.98 -5.4 22.3 78 -8.7 16.4
04:05 1017 30.03 846 24.98 -5.4 22.2 77 -8.8 16.1
04:10 1017 30.03 846 24.98 -5.4 22.3 78 -8.6 16.5
04:15 1017 30.03 846 24.98 -5.4 22.3 77 -8.7 16.3
04:20 1017 30.03 846 24.98 -5.5 22.2 77 -8.8 16.2
04:25 1017 30.03 846 24.98 -5.4 22.2 76 -9 15.9
04:30 1017 30.03 846 24.98 -5.4 22.3 76 -8.9 15.9
04:35 1017 30.03 846 24.98 -5.4 22.2 78 -8.7 16.4
04:40 1017 30.03 846 24.98 -5.4 22.2 77 -8.9 15.9
04:45 1017 30.03 846 24.98 -5.4 22.2 77 -8.9 16
04:50 1017 30.03 846 24.98 -5.5 22.2 78 -8.7 16.3
04:55 1017 30.03 846 24.98 -5.4 22.2 78 -8.8 16.2
05:00 1017 30.03 846 24.98 -5.5 22.2 76 -9 15.7
05:05 1017 30.03 846 24.98 -5.5 22.2 76 -9 15.8
05:10 1016 30 846 24.98 -5.4 22.2 75 -9.1 15.6
05:15 1016 30 846 24.98 -5.5 22.2 77 -8.9 16
05:20 1016 30 846 24.98 -5.5 22 76 -9.1 15.7
05:25 1016 30 846 24.98 -5.5 22.1 76 -9 15.7
05:30 1016 30 845 24.95 -5.5 22 76 -9.1 15.7
05:35 1016 30 845 24.95 -5.6 22 76 -9.1 15.7
05:40 1016 30 845 24.95 -5.5 22 76 -9 15.7
05:45 1016 30 845 24.95 -5.6 21.9 77 -9 15.8
05:50 1016 30 845 24.95 -5.6 22 77 -9 15.8
05:55 1016 30 845 24.95 -5.5 22 77 -9 15.9
06:00 1016 30 845 24.95 -5.5 22.1 76 -9 15.7
06:05 1016 30 845 24.95 -5.6 22 76 -9.1 15.6
06:10 1016 30 845 24.95 -5.5 22.1 75 -9.2 15.4
06:15 1016 30 845 24.95 -5.5 22.1 77 -9 15.8
06:20 1016 30 845 24.95 -5.6 21.9 76 -9.2 15.5
06:25 1016 30 845 24.95 -5.5 22 76 -9.1 15.6
06:30 1016 30 845 24.95 -5.6 22 77 -9 15.8
06:35 1016 30 845 24.95 -5.5 22.1 76 -9 15.8
06:40 1016 30 845 24.95 -5.5 22.1 76 -9.1 15.5
06:45 1016 30 845 24.95 -5.6 22 76 -9.1 15.6
06:50 1016 30 845 24.95 -5.5 22.1 76 -9 15.8
06:55 1016 30 845 24.95 -5.5 22.1 77 -8.9 16.1
07:00 1016 30 845 24.95 -5.5 22.2 77 -8.9 16
07:05 1016 30 845 24.95 -5.5 22.1 76 -9.1 15.6
07:10 1016 30 845 24.95 -5.4 22.2 76 -9 15.9
07:15 1016 30 845 24.95 -5.4 22.3 76 -9 15.8
07:20 1016 30 845 24.95 -5.3 22.4 75 -9.1 15.5
07:25 1016 30 845 24.95 -5.3 22.5 76 -8.9 16
07:30 1016 30 845 24.95 -5.1 22.8 74 -9.1 15.7
07:35 1016 30 845 24.95 -5.2 22.7 73 -9.4 15.2
07:40 1016 30 845 24.95 -5.1 22.8 73 -9.1 15.6
07:45 1016 30 845 24.95 -4.9 23.2 73 -9 15.9
07:50 1016 30 845 24.95 -4.8 23.3 72 -9.1 15.6
07:55 1016 30 845 24.95 -4.8 23.4 70 -9.5 15
08:00 1016 30 845 24.95 -4.7 23.6 70 -9.4 15.1
08:05 1016 30 845 24.95 -4.7 23.6 71 -9.2 15.4
08:10 1016 30 845 24.95 -4.5 24 70 -9.2 15.5
08:15 1016 30 845 24.95 -4.3 24.2 69 -9.1 15.6
08:20 1016 30 845 24.95 -4.4 24.1 70 -9.1 15.6
08:25 1016 30 845 24.95 -4.3 24.3 69 -9.1 15.6
08:30 1016 30 845 24.95 -4.1 24.6 69 -9 15.8
08:35 1016 30 845 24.95 -4 24.8 72 -8.4 16.9
08:40 1016 30 845 24.95 -3.8 25.2 72 -8 17.6
08:45 1016 30 845 24.95 -3.9 25 71 -8.4 17
08:50 1016 30 845 24.95 -4.1 24.7 73 -8.3 17.1
08:55 1016 30 845 24.95 -4.1 24.5 72 -8.4 16.8
09:00 1016 30 845 24.95 -4 24.9 72 -8.3 17.1
09:05 1016 30 845 24.95 -3.6 25.5 71 -8.1 17.4
09:10 1016 30 845 24.95 -3.6 25.5 71 -8.1 17.4
09:15 1016 30 845 24.95 -3.8 25.2 73 -8 17.5
09:20 1016 30 845 24.95 -3.6 25.6 69 -8.5 16.7
09:25 1016 30 845 24.95 -3.9 24.9 72 -8.2 17.2
09:30 1016 30 845 24.95 -3.5 25.6 71 -8.1 17.4
09:35 1016 30 845 24.95 -3 26.6 69 -7.9 17.7
09:40 1016 30 845 24.95 -3.4 25.9 70 -8.2 17.2
09:45 1016 30 845 24.95 -3.4 25.9 69 -8.3 17.1
09:50 1016 30 845 24.95 -3.2 26.2 68 -8.3 17.1
09:55 1016 30 845 24.95 -3.3 26.1 69 -8.1 17.4
10:00 1016 30 845 24.95 -2.7 27.1 69 -7.7 18.2
10:05 1016 30 845 24.95 -2.9 26.9 69 -7.8 17.9
10:10 1016 30 845 24.95 -2.2 28 64 -8.1 17.5
10:15 1016 30 845 24.95 -1.3 29.7 64 -7.3 18.8
10:20 1016 30 845 24.95 -2.1 28.2 64 -8 17.7
10:25 1016 30 845 24.95 -2 28.4 67 -7.3 18.8
10:30 1016 30 845 24.95 -1.4 29.4 62 -7.9 17.9
10:35 1016 30 845 24.95 -1.9 28.5 63 -8 17.6
10:40 1016 30 845 24.95 -2.1 28.3 65 -7.8 17.9
10:45 1016 30 845 24.95 -1.8 28.8 62 -8.1 17.4
10:50 1016 30 845 24.95 -1.4 29.5 63 -7.7 18.2
10:55 1016 30 845 24.95 -1 30.1 60 -7.9 17.7
11:00 1016 30 845 24.95 -1.1 30.1 63 -7.3 18.8
11:05 1016 30 845 24.95 -1.4 29.4 63 -7.7 18.2
11:10 1016 30 845 24.95 -2.2 28.1 65 -8 17.7
11:15 1016 30 845 24.95 -1.7 28.9 63 -7.9 17.7
11:20 1016 30 845 24.95 -1.3 29.6 63 -7.4 18.7
11:25 1016 30 845 24.95 -1.1 30 60 -7.9 17.9
11:30 1016 30 845 24.95 -0.8 30.5 57 -8.3 17
11:35 1016 30 845 24.95 -0.2 31.6 56 -7.9 17.8
11:40 1016 30 845 24.95 -0 32 54 -8.2 17.2
11:45 1016 30 845 24.95 -0.9 30.4 56 -8.6 16.6
11:50 1016 30 845 24.95 -1 30.3 56 -8.8 16.2
11:55 1016 30 845 24.95 -0.6 31 50 -9.7 14.6
12:00 1016 30 845 24.95 -0.4 31.3 50 -9.5 14.9
12:05 1016 30 845 24.95 0.1 32.2 50 -9.2 15.5
12:10 1016 30 845 24.95 -0 32 47 -10 14
12:15 1016 30 845 24.95 -0.5 31.2 53 -9 15.8
12:20 1016 30 845 24.95 0.2 32.3 49 -9.3 15.3
12:25 1016 30 845 24.95 -0.2 31.7 53 -8.7 16.4
12:30 1016 30 845 24.95 -0.6 30.9 57 -8.1 17.4
12:35 1016 30 845 24.95 -0.8 30.6 54 -9 15.7
12:40 1016 30 845 24.95 -0.6 30.9 52 -9.3 15.2
12:45 1016 30 845 24.95 -0.2 31.7 54 -8.5 16.7
12:50 1016 30 845 24.95 -0.9 30.4 54 -9.1 15.6
12:55 1016 30 845 24.95 -1 30.2 53 -9.3 15.2
13:00 1016 30 845 24.95 -0.4 31.2 52 -9.2 15.5
13:05 1016 30 845 24.95 0.4 32.8 47 -9.5 14.8
13:10 1016 30 845 24.95 0.4 32.8 47 -9.5 14.9
13:15 1016 30 845 24.95 0.9 33.6 45 -9.6 14.7
13:20 1016 30 845 24.95 1.3 34.3 46 -9.2 15.5
13:25 1016 30 845 24.95 1.5 34.6 46 -9 15.8
13:30 1016 30 845 24.95 0.3 32.6 46 -10 14
13:35 1016 30 845 24.95 0.7 33.3 48 -9 15.7
13:40 1016 30 845 24.95 0.8 33.5 48 -8.9 15.9
13:45 1016 30 845 24.95 0.3 32.6 49 -9.2 15.4
13:50 1016 30 845 24.95 0.1 32.3 50 -9.2 15.5
13:55 1016 30 845 24.95 0.8 33.5 45 -9.9 14.1
14:00 1016 30 845 24.95 1.3 34.3 48 -8.5 16.6
14:05 1016 30 845 24.95 1.1 34 44 -9.7 14.5
14:10 1016 30 845 24.95 0.7 33.2 50 -8.6 16.5
14:15 1016 30 845 24.95 1 33.9 48 -8.9 16.1
14:20 1016 30 845 24.95 1.1 34 45 -9.6 14.7
14:25 1015 29.97 845 24.95 1.4 34.5 44 -9.5 14.8
14:30 1016 30 845 24.95 1.3 34.3 47 -8.8 16.2
14:35 1016 30 845 24.95 1 33.9 45 -9.6 14.7
14:40 1016 30 845 24.95 0.2 32.4 48 -9.4 15
14:45 1016 30 845 24.95 0.1 32.2 50 -9 15.8
14:50 1016 30 845 24.95 0.2 32.3 54 -8 17.7
14:55 1016 30 845 24.95 -0.5 31.1 57 -8.1 17.5
15:00 1016 30 845 24.95 -0.4 31.3 57 -7.8 17.9
15:05 1016 30 845 24.95 0.7 33.3 55 -7.3 18.8
15:10 1015 29.97 845 24.95 1 33.9 53 -7.5 18.6
15:15 1015 29.97 845 24.95 1.5 34.7 52 -7.4 18.7
15:20 1015 29.97 845 24.95 2 35.6 52 -6.8 19.7
15:25 1015 29.97 844 24.92 2.2 36 51 -7 19.4
15:30 1015 29.97 844 24.92 2.5 36.5 52 -6.3 20.7
15:35 1015 29.97 844 24.92 1.5 34.8 52 -7.4 18.7
15:40 1015 29.97 844 24.92 1.7 35.1 47 -8.3 17.1
15:45 1015 29.97 844 24.92 2.3 36.2 53 -6.4 20.6
15:50 1015 29.97 844 24.92 2.7 36.9 47 -7.6 18.3
15:55 1015 29.97 844 24.92 1.4 34.4 52 -7.4 18.6
16:00 1015 29.97 844 24.92 1.2 34.2 51 -7.8 18
16:05 1015 29.97 844 24.92 1.7 35.1 49 -8 17.6
16:10 1015 29.97 844 24.92 1.7 35.1 47 -8.4 16.8
16:15 1015 29.97 844 24.92 1.3 34.3 50 -8 17.6
16:20 1015 29.97 844 24.92 1.6 34.8 46 -8.9 16
16:25 1015 29.97 844 24.92 1 33.9 49 -8.6 16.5
16:30 1015 29.97 844 24.92 1.9 35.3 48 -7.9 17.7
16:35 1015 29.97 844 24.92 1.1 33.9 51 -7.8 17.9
16:40 1015 29.97 844 24.92 1.7 35 50 -7.7 18.1
16:45 1015 29.97 844 24.92 2.4 36.3 47 -7.8 17.9
16:50 1015 29.97 844 24.92 3 37.3 44 -8 17.6
16:55 1015 29.97 844 24.92 3.7 38.6 42 -8.1 17.4
17:00 1015 29.97 844 24.92 3.9 39.1 42 -7.7 18.2
17:05 1015 29.97 844 24.92 4.3 39.8 42 -7.4 18.7
17:10 1015 29.97 844 24.92 4.3 39.8 41 -7.9 17.8
17:15 1015 29.97 844 24.92 3.4 38.1 49 -6.4 20.5
17:20 1015 29.97 844 24.92 1.8 35.3 54 -6.5 20.3
17:25 1015 29.97 844 24.92 1 33.9 57 -6.6 20.2
17:30 1015 29.97 844 24.92 0.6 33 59 -6.5 20.3
17:35 1015 29.97 844 24.92 0.6 33 59 -6.4 20.4
17:40 1015 29.97 845 24.95 0.6 33.1 59 -6.6 20.2
17:45 1015 29.97 845 24.95 0.5 33 60 -6.4 20.5
17:50 1015 29.97 845 24.95 0.1 32.2 62 -6.4 20.5
17:55 1016 30 845 24.95 0.4 32.7 59 -6.7 20
18:00 1016 30 845 24.95 0.5 32.9 60 -6.4 20.4
18:05 1016 30 845 24.95 0.6 33.1 65 -5.2 22.6
18:10 1016 30 845 24.95 0.6 33.2 63 -5.5 22.1
18:15 1016 30 845 24.95 0.7 33.2 62 -5.8 21.5
18:20 1016 30 845 24.95 0.8 33.5 62 -5.7 21.7
18:25 1016 30 845 24.95 1.2 34.2 62 -5.3 22.4
18:30 1016 30 845 24.95 1.3 34.4 59 -5.7 21.7
18:35 1016 30 845 24.95 1.3 34.4 57 -6.2 20.8
18:40 1016 30 845 24.95 1.2 34.1 56 -6.7 20
18:45 1016 30 845 24.95 1 33.8 57 -6.7 19.9
18:50 1016 30 845 24.95 0.2 32.4 63 -6 21.3
18:55 1016 30 845 24.95 -0.5 31.1 76 -4.1 24.5
19:00 1016 30 845 24.95 -1.1 30.1 79 -4.3 24.3
19:05 1016 30 845 24.95 -0.9 30.5 77 -4.4 24
19:10 1016 30 845 24.95 -1.1 29.9 78 -4.5 23.9
19:15 1016 30 845 24.95 -1.5 29.4 81 -4.3 24.3
19:20 1016 30 845 24.95 -1.7 29 81 -4.5 23.9
19:25 1016 30 845 24.95 -1.9 28.5 82 -4.6 23.8
19:30 1016 30 845 24.95 -2 28.4 84 -4.3 24.2
19:35 1016 30 845 24.95 -2.1 28.2 84 -4.4 24.1
19:40 1016 30 846 24.98 -2.3 27.9 83 -4.8 23.4
19:45 1016 30 846 24.98 -2.2 28 81 -5 22.9
19:50 1016 30 846 24.98 -2.2 28 77 -5.7 21.7
19:55 1017 30.03 846 24.98 -2.1 28.2 80 -5.2 22.7
20:00 1017 30.03 846 24.98 -2.1 28.2 76 -5.7 21.7
20:05 1017 30.03 846 24.98 -2.1 28.2 73 -6.4 20.5
20:10 1017 30.03 846 24.98 -2 28.5 71 -6.5 20.3
20:15 1017 30.03 846 24.98 -2 28.4 72 -6.4 20.4
20:20 1017 30.03 846 24.98 -2 28.4 71 -6.6 20.2
20:25 1017 30.03 846 24.98 -2 28.4 71 -6.6 20.2
20:30 1017 30.03 846 24.98 -2 28.4 70 -6.7 19.9
20:35 1017 30.03 846 24.98 -2.1 28.2 71 -6.8 19.8
20:40 1017 30.03 846 24.98 -2.1 28.1 71 -6.8 19.8
20:45 1017 30.03 846 24.98 -2.2 28.1 69 -7.1 19.3
20:50 1017 30.03 846 24.98 -2.3 27.9 69 -7.3 18.9
20:55 1017 30.03 847 25.01 -2.2 28 68 -7.4 18.7
21:00 1017 30.03 847 25.01 -2.4 27.7 69 -7.2 19
21:05 1018 30.06 847 25.01 -2.3 27.9 68 -7.4 18.6
21:10 1018 30.06 847 25.01 -2.5 27.6 68 -7.6 18.4
21:15 1018 30.06 847 25.01 -2.6 27.4 68 -7.7 18.2
21:20 1018 30.06 847 25.01 -2.6 27.4 69 -7.5 18.5
21:25 1018 30.06 847 25.01 -2.6 27.4 69 -7.6 18.4
21:30 1018 30.06 847 25.01 -2.6 27.3 70 -7.5 18.6
21:35 1018 30.06 847 25.01 -2.7 27.2 70 -7.4 18.7
21:40 1018 30.06 847 25.01 -2.8 26.9 71 -7.5 18.6
21:45 1018 30.06 847 25.01 -2.9 26.8 69 -7.7 18.1
21:50 1018 30.06 847 25.01 -2.9 26.8 69 -7.9 17.8
21:55 1018 30.06 847 25.01 -2.9 26.8 70 -7.6 18.3
22:00 1018 30.06 847 25.01 -2.9 26.7 70 -7.7 18.1
22:05 1018 30.06 847 25.01 -3 26.6 69 -7.9 17.8
22:10 1018 30.06 847 25.01 -3 26.6 69 -7.9 17.7
22:15 1018 30.06 847 25.01 -3 26.6 68 -8 17.6
22:20 1018 30.06 847 25.01 -2.9 26.7 68 -8 17.6
22:25 1018 30.06 847 25.01 -3 26.6 67 -8.3 17.1
22:30 1018 30.06 847 25.01 -3 26.5 68 -8.2 17.3
22:35 1018 30.06 848 25.04 -3.1 26.4 68 -8.3 17.1
22:40 1018 30.06 848 25.04 -3.1 26.3 69 -8.1 17.4
22:45 1018 30.06 848 25.04 -3.2 26.3 68 -8.3 17.1
22:50 1018 30.06 848 25.04 -3.2 26.2 67 -8.5 16.8
22:55 1018 30.06 848 25.04 -3.2 26.2 65 -9 15.8
23:00 1018 30.06 848 25.04 -3.3 26 64 -9.2 15.5
23:05 1018 30.06 848 25.04 -3.4 26 64 -9.3 15.3
23:10 1018 30.06 848 25.04 -3.3 26.1 62 -9.5 14.9
23:15 1019 30.09 848 25.04 -3.5 25.8 63 -9.5 15
23:20 1019 30.09 848 25.04 -3.5 25.7 63 -9.6 14.7
23:25 1019 30.09 848 25.04 -3.6 25.5 62 -9.8 14.3
23:30 1019 30.09 848 25.04 -3.8 25.2 62 -10.1 13.9
23:35 1018 30.06 848 25.04 -3.9 24.9 62 -10.2 13.7
23:40 1019 30.09 848 25.04 -4.1 24.6 63 -10.2 13.7
23:45 1019 30.09 848 25.04 -4.2 24.4 64 -10.1 13.8
23:50 1018 30.06 848 25.04 -4.3 24.3 65 -10 14
23:55 1019 30.09 848 25.04 -4.4 24.1 65 -10 14
24:00 1019 30.09 848 25.04 -4.6 23.8 66 -9.9 14.2